KPQL

Trent Lott International Airport

Pascagoula, Mississippi, USA
METAR KPQL 162353Z 00000KT 10SM CLR 10/08 A3024 RMK AO2 SLP241 T01000078 10172 20094 53004
Observed Flight Rules
Dec-16 @ 23:53 UTC (31 minutes ago) Visual Flight Rules
Visibility Clouds
10 miles
  • Clear skies
Temperatures Readings
Current 10°C / 50°F
Dewpoint 8°C / 46°F
Humidity 88%
Altimeter 30.24" Hg
Pressure 1024.1 hPa
Elevation 6
METAR KPQL 162353Z 00000KT 10SM CLR 10/08 A3024 RMK AO2 SLP241 T01000078 10172 20094 53004
Observed Flight Rules
Dec-16 @ 23:53 UTC
(31 minutes ago)
VFR
Clouds
  • Clear skies
Temperature Dewpoint
10°C / 50°F 8°C / 46°F
Humidity Altimeter Pressure
88% 30.24" Hg 1024.1 hPa